createdAt,value
2023-03-29T00:03:45.699Z,4.35
2023-03-29T00:08:46.115Z,3.63
2023-03-29T00:13:45.678Z,3.40
2023-03-29T00:18:43.815Z,3.20
2023-03-29T00:23:42.000Z,2.67
2023-03-29T00:28:40.149Z,3.28
2023-03-29T00:33:39.645Z,3.42
2023-03-29T00:38:37.916Z,3.47
2023-03-29T00:43:50.929Z,3.30
2023-03-29T00:48:50.749Z,3.50
2023-03-29T00:53:52.284Z,4.53
2023-03-29T00:58:52.132Z,3.58
2023-03-29T01:03:54.477Z,4.30
2023-03-29T01:08:55.303Z,3.47
2023-03-29T01:13:57.722Z,8.38
2023-03-29T01:18:58.482Z,5.25
2023-03-29T01:24:16.319Z,3.83
2023-03-29T01:29:17.772Z,4.80
2023-03-29T01:34:18.179Z,4.80
2023-03-29T01:39:16.520Z,3.78
2023-03-29T01:44:18.955Z,4.10
2023-03-29T01:49:21.866Z,5.60
2023-03-29T01:54:21.845Z,5.18
2023-03-29T01:59:24.090Z,4.70
2023-03-29T02:04:25.543Z,7.47
2023-03-29T02:09:24.223Z,7.78
2023-03-29T02:14:24.800Z,4.22
2023-03-29T02:19:24.050Z,6.88
2023-03-29T02:24:23.292Z,15.50
2023-03-29T02:29:21.441Z,7.95
2023-03-29T02:34:22.640Z,7.97
2023-03-29T02:39:21.301Z,4.55
2023-03-29T02:44:21.546Z,5.18
2023-03-29T02:49:22.100Z,4.53
2023-03-29T02:54:23.178Z,4.68
2023-03-29T02:59:22.569Z,5.50
2023-03-29T03:04:22.143Z,4.20
2023-03-29T03:09:20.800Z,4.78
2023-03-29T03:14:22.790Z,6.75
2023-03-29T03:19:22.688Z,15.25
2023-03-29T03:24:21.229Z,9.60
2023-03-29T03:29:19.474Z,6.25
2023-03-29T03:34:38.658Z,9.55
2023-03-29T03:39:37.593Z,7.35
2023-03-29T03:44:38.691Z,8.23
2023-03-29T03:49:51.764Z,6.03
2023-03-29T03:54:54.316Z,5.03
2023-03-29T04:00:19.239Z,9.63
2023-03-29T04:05:25.856Z,6.35
2023-03-29T04:10:26.375Z,15.60
2023-03-29T04:15:35.405Z,5.30
2023-03-29T04:20:39.311Z,6.75
2023-03-29T04:25:38.110Z,5.60
2023-03-29T04:30:54.611Z,6.25
2023-03-29T04:36:06.129Z,6.55
2023-03-29T04:41:05.008Z,6.28
2023-03-29T04:46:25.496Z,7.75
2023-03-29T04:51:45.204Z,7.28
2023-03-29T04:56:44.836Z,5.38
2023-03-29T05:02:07.405Z,6.57
2023-03-29T05:07:09.603Z,5.68
2023-03-29T05:12:07.995Z,7.65
2023-03-29T05:17:18.325Z,6.32
2023-03-29T05:22:19.154Z,10.70
2023-03-29T05:27:18.155Z,6.88
2023-03-29T05:32:29.307Z,5.88
2023-03-29T05:37:29.706Z,7.03
2023-03-29T05:42:31.265Z,5.28
2023-03-29T05:47:34.551Z,6.00
2023-03-29T05:52:34.261Z,8.75
2023-03-29T05:57:36.356Z,7.55
2023-03-29T06:02:35.054Z,9.57
2023-03-29T06:07:38.303Z,10.65
2023-03-29T06:12:46.985Z,7.30
2023-03-29T06:17:45.979Z,9.07
2023-03-29T06:22:47.968Z,11.15
2023-03-29T06:27:47.882Z,11.05
2023-03-29T06:32:49.481Z,6.65
2023-03-29T06:38:12.417Z,9.13
2023-03-29T06:43:34.769Z,5.93
2023-03-29T06:48:48.321Z,9.15
2023-03-29T06:53:48.466Z,9.52
2023-03-29T06:58:48.630Z,6.38
2023-03-29T07:04:10.086Z,8.15
2023-03-29T07:09:33.484Z,6.50
2023-03-29T07:14:45.786Z,7.90
2023-03-29T07:19:44.667Z,3.88
2023-03-29T07:25:00.151Z,5.22
2023-03-29T07:29:58.465Z,5.55
2023-03-29T07:34:56.798Z,8.55
2023-03-29T07:40:08.996Z,6.35
2023-03-29T07:45:26.501Z,8.63
2023-03-29T07:50:33.065Z,5.40
2023-03-29T07:55:35.703Z,5.55
2023-03-29T08:00:53.778Z,7.35
2023-03-29T08:06:16.181Z,5.65
2023-03-29T08:11:15.846Z,6.32
2023-03-29T08:16:28.935Z,9.07
2023-03-29T08:21:35.691Z,7.57
2023-03-29T08:26:35.627Z,8.10
2023-03-29T08:31:34.104Z,7.68
2023-03-29T08:36:32.695Z,6.00
2023-03-29T08:41:44.683Z,3.90
2023-03-29T08:46:45.729Z,4.85
2023-03-29T08:51:56.715Z,4.13
2023-03-29T08:56:59.372Z,3.80
2023-03-29T09:02:01.382Z,5.38
2023-03-29T09:06:59.780Z,3.70
2023-03-29T09:12:13.951Z,3.30
2023-03-29T09:17:21.580Z,4.38
2023-03-29T09:22:24.286Z,7.07
2023-03-29T09:27:26.732Z,4.55
2023-03-29T09:32:33.063Z,6.68
2023-03-29T09:37:35.377Z,6.43
2023-03-29T09:42:34.991Z,5.78
2023-03-29T09:47:36.140Z,4.20
2023-03-29T09:52:40.035Z,6.15
2023-03-29T09:57:50.130Z,6.88
2023-03-29T10:02:53.870Z,5.40
2023-03-29T10:08:01.180Z,5.03
2023-03-29T10:13:02.609Z,4.07
2023-03-29T10:18:03.248Z,4.80
2023-03-29T10:23:02.000Z,5.65
2023-03-29T10:28:05.382Z,6.68
2023-03-29T10:33:03.743Z,9.40
2023-03-29T10:38:04.769Z,11.25
2023-03-29T10:43:13.092Z,8.65
2023-03-29T10:48:12.926Z,5.47
2023-03-29T10:53:16.010Z,4.68
2023-03-29T10:58:25.717Z,3.42
2023-03-29T11:03:29.721Z,4.95
2023-03-29T11:08:31.763Z,5.93
2023-03-29T11:13:34.375Z,3.50
2023-03-29T11:18:40.783Z,3.20
2023-03-29T11:23:44.763Z,4.00
2023-03-29T11:28:48.735Z,4.20
2023-03-29T11:33:59.070Z,5.13
2023-03-29T11:39:00.759Z,6.00
2023-03-29T11:44:01.772Z,5.70
2023-03-29T11:49:02.594Z,17.65
2023-03-29T11:54:02.892Z,4.47
2023-03-29T11:59:06.296Z,3.85
2023-03-29T12:04:08.231Z,3.53
2023-03-29T12:09:11.087Z,7.95
2023-03-29T12:14:14.315Z,7.22
2023-03-29T12:19:16.560Z,5.35
2023-03-29T12:24:16.254Z,8.13
2023-03-29T12:29:34.109Z,7.05
2023-03-29T12:34:37.356Z,3.22
2023-03-29T12:39:54.810Z,3.65
2023-03-29T12:45:15.996Z,3.58
2023-03-29T12:50:23.189Z,4.18
2023-03-29T12:55:31.303Z,7.07
2023-03-29T13:00:34.727Z,12.55
2023-03-29T13:05:34.319Z,5.32
2023-03-29T13:10:40.699Z,6.28
2023-03-29T13:15:40.377Z,8.55
2023-03-29T13:20:42.295Z,15.07
2023-03-29T13:25:46.140Z,7.03
2023-03-29T13:30:52.086Z,5.55
2023-03-29T13:35:54.752Z,5.65
2023-03-29T13:41:00.472Z,5.13
2023-03-29T13:46:07.992Z,4.57
2023-03-29T13:51:20.710Z,4.63
2023-03-29T13:56:21.163Z,11.38
2023-03-29T14:01:26.114Z,11.98
2023-03-29T14:06:27.102Z,21.50
2023-03-29T14:11:26.132Z,5.03
2023-03-29T14:16:27.854Z,4.93
2023-03-29T14:21:26.083Z,3.70
2023-03-29T14:26:25.128Z,5.40
2023-03-29T14:31:25.267Z,3.80
2023-03-29T14:36:25.775Z,3.60
2023-03-29T14:41:24.487Z,4.10
2023-03-29T14:46:23.131Z,4.30
2023-03-29T14:51:23.360Z,2.90
2023-03-29T14:56:25.510Z,5.78
2023-03-29T15:01:24.437Z,5.97
2023-03-29T15:06:23.705Z,3.22
2023-03-29T15:11:24.683Z,4.00
2023-03-29T15:16:23.449Z,4.90
2023-03-29T15:21:22.885Z,5.07
2023-03-29T15:26:23.381Z,6.40
2023-03-29T15:31:26.463Z,9.32
2023-03-29T15:36:24.655Z,7.80
2023-03-29T15:41:23.073Z,3.40
2023-03-29T15:46:21.375Z,5.13
2023-03-29T15:51:21.357Z,4.05
2023-03-29T15:56:21.088Z,5.53
2023-03-29T16:01:33.834Z,4.18
2023-03-29T16:06:34.391Z,5.13
2023-03-29T16:11:32.535Z,4.60
2023-03-29T16:16:30.809Z,9.55
2023-03-29T16:21:29.258Z,11.07
2023-03-29T16:26:30.352Z,7.10
2023-03-29T16:31:28.887Z,5.20
2023-03-29T16:36:28.268Z,15.18
2023-03-29T16:41:27.115Z,13.25
2023-03-29T16:46:27.004Z,11.43
2023-03-29T16:51:25.634Z,12.75
2023-03-29T16:56:23.919Z,10.50
2023-03-29T17:01:22.811Z,12.10
2023-03-29T17:06:22.868Z,23.25
2023-03-29T17:11:23.227Z,18.23
2023-03-29T17:16:21.771Z,13.95
2023-03-29T17:21:20.398Z,10.60
2023-03-29T17:26:19.965Z,8.10
2023-03-29T17:31:19.347Z,7.28
2023-03-29T17:36:17.811Z,12.23
2023-03-29T17:41:16.110Z,10.35
2023-03-29T17:46:16.589Z,9.32
2023-03-29T17:51:14.810Z,13.43
2023-03-29T17:56:13.202Z,12.90
2023-03-29T18:01:11.794Z,11.73
2023-03-29T18:06:12.456Z,15.18
2023-03-29T18:11:11.887Z,8.25
2023-03-29T18:16:10.749Z,8.25
2023-03-29T18:21:10.199Z,7.72
2023-03-29T18:26:10.075Z,15.13
2023-03-29T18:31:08.747Z,11.32
2023-03-29T18:36:10.821Z,43.88
2023-03-29T18:41:13.275Z,45.17
2023-03-29T18:46:12.338Z,59.78
2023-03-29T18:51:11.629Z,28.40
2023-03-29T18:56:09.791Z,8.32
2023-03-29T19:01:10.917Z,14.73
2023-03-29T19:06:09.467Z,14.30
2023-03-29T19:11:08.857Z,32.33
2023-03-29T19:16:07.583Z,14.95
2023-03-29T19:21:07.556Z,7.68
2023-03-29T19:26:06.518Z,5.78
2023-03-29T19:31:05.490Z,6.60
2023-03-29T19:36:03.846Z,6.75
2023-03-29T19:41:03.678Z,9.13
2023-03-29T19:46:07.147Z,6.60
2023-03-29T19:51:05.751Z,13.02
2023-03-29T19:56:06.465Z,19.00
2023-03-29T20:01:04.952Z,8.75
2023-03-29T20:06:03.274Z,7.43
2023-03-29T20:11:03.511Z,4.95
2023-03-29T20:16:04.219Z,4.60
2023-03-29T20:21:03.808Z,5.60
2023-03-29T20:26:02.102Z,8.98
2023-03-29T20:31:05.037Z,10.63
2023-03-29T20:36:03.918Z,11.30
2023-03-29T20:41:02.862Z,20.13
2023-03-29T20:46:01.233Z,20.60
2023-03-29T20:51:03.257Z,24.75
2023-03-29T20:56:01.626Z,8.88
2023-03-29T21:00:59.869Z,33.08
2023-03-29T21:05:58.321Z,31.80
2023-03-29T21:10:57.938Z,48.55
2023-03-29T21:15:56.095Z,14.48
2023-03-29T21:20:55.398Z,6.20
2023-03-29T21:25:53.562Z,4.68
2023-03-29T21:30:53.159Z,5.10
2023-03-29T21:35:51.617Z,6.65
2023-03-29T21:40:49.906Z,30.38
2023-03-29T21:45:49.231Z,10.30
2023-03-29T21:50:51.087Z,7.43
2023-03-29T21:55:49.338Z,8.32
2023-03-29T22:00:48.127Z,6.22
2023-03-29T22:05:57.625Z,7.13
2023-03-29T22:10:57.046Z,8.65
2023-03-29T22:15:56.086Z,9.35
2023-03-29T22:20:54.670Z,7.47
2023-03-29T22:25:54.178Z,7.63
2023-03-29T22:30:52.359Z,4.65
2023-03-29T22:35:50.771Z,6.80
2023-03-29T22:40:50.144Z,6.68
2023-03-29T22:45:49.681Z,7.03
2023-03-29T22:50:47.886Z,5.85
2023-03-29T22:55:46.278Z,5.60
2023-03-29T23:00:44.441Z,7.13
2023-03-29T23:05:49.939Z,9.02
2023-03-29T23:10:48.249Z,6.10
2023-03-29T23:15:48.327Z,7.70
2023-03-29T23:20:48.466Z,6.53
2023-03-29T23:25:47.598Z,5.80
2023-03-29T23:30:45.747Z,6.43
2023-03-29T23:35:44.739Z,7.07
2023-03-29T23:40:44.350Z,5.88
2023-03-29T23:45:42.485Z,4.28
2023-03-29T23:50:40.598Z,5.05
2023-03-29T23:55:38.774Z,4.45
